Time;durP1;ratioP1;P1;durP2;ratioP2;P2;SDS_P1;SDS_P2;PMS_P1;PMS_P2;Temp;Humidity;BMP_temperature;BMP_pressure;BME280_temperature;BME280_humidity;BME280_pressure;Samples;Min_cycle;Max_cycle;Signal;HPM_P1;HPM_P2
2023/03/07 00:01:45;;;;;;;7.13;3.45;;;5.90;99.90;;;;;;5112802;28;20379;-42
2023/03/07 00:04:11;;;;;;;8.10;3.83;;;5.90;99.90;;;;;;5112300;28;20031;-50
2023/03/07 00:06:36;;;;;;;8.27;4.65;;;5.90;99.90;;;;;;5112548;27;20059;-50
2023/03/07 00:09:02;;;;;;;9.80;4.95;;;5.90;99.90;;;;;;5112465;28;20459;-46
2023/03/07 00:11:28;;;;;;;9.68;4.45;;;5.90;99.90;;;;;;5112056;28;20039;-46
2023/03/07 00:13:54;;;;;;;6.85;4.25;;;5.90;99.90;;;;;;5115469;27;20098;-50
2023/03/07 00:16:22;;;;;;;8.65;4.07;;;6.00;99.90;;;;;;5112499;28;20031;-46
2023/03/07 00:18:48;;;;;;;7.05;3.53;;;6.00;99.90;;;;;;5112239;28;20007;-42
2023/03/07 00:21:17;;;;;;;7.63;3.83;;;6.00;99.90;;;;;;5110812;28;20034;-52
2023/03/07 00:23:44;;;;;;;7.80;2.80;;;6.00;99.90;;;;;;5111940;28;20015;-41
2023/03/07 00:26:24;;;;;;;7.65;3.10;;;6.00;99.90;;;;;;5112331;28;20122;-42
2023/03/07 00:28:52;;;;;;;6.88;2.53;;;6.00;99.90;;;;;;5112071;28;20031;-42
2023/03/07 00:31:19;;;;;;;4.55;2.50;;;6.10;99.90;;;;;;5112022;28;20063;-42
2023/03/07 00:33:45;;;;;;;5.18;2.28;;;6.00;99.90;;;;;;5111478;28;20046;-42
2023/03/07 00:36:17;;;;;;;4.10;2.30;;;6.00;99.90;;;;;;5111996;27;20102;-42
2023/03/07 00:38:43;;;;;;;4.43;2.58;;;6.10;99.90;;;;;;5111688;28;20023;-49
2023/03/07 00:41:12;;;;;;;5.45;2.83;;;6.10;99.90;;;;;;5112030;28;20020;-48
2023/03/07 00:43:38;;;;;;;7.25;2.50;;;6.10;99.90;;;;;;5124285;27;20031;-42
2023/03/07 00:46:04;;;;;;;9.13;2.63;;;6.00;99.90;;;;;;5112473;27;20074;-44
2023/03/07 00:48:33;;;;;;;4.38;2.20;;;6.10;99.90;;;;;;5111910;28;20023;-47
2023/03/07 00:50:58;;;;;;;6.90;2.80;;;6.10;99.90;;;;;;5112018;28;20424;-44
2023/03/07 00:53:24;;;;;;;7.82;2.70;;;6.00;99.90;;;;;;5111862;28;20024;-42
2023/03/07 00:55:58;;;;;;;6.28;2.45;;;6.00;99.90;;;;;;5111656;28;20023;-42
2023/03/07 00:58:25;;;;;;;4.35;2.40;;;6.10;99.90;;;;;;5111784;28;20051;-42
2023/03/07 01:00:51;;;;;;;6.15;2.17;;;6.10;99.90;;;;;;5111601;28;20055;-45
2023/03/07 01:03:18;;;;;;;3.75;1.70;;;6.10;99.90;;;;;;5111445;27;20371;-42
2023/03/07 01:05:44;;;;;;;3.17;1.60;;;6.10;99.90;;;;;;5110788;28;20032;-45
2023/03/07 01:08:09;;;;;;;4.57;1.80;;;6.10;99.90;;;;;;5111274;28;20020;-51
2023/03/07 01:10:35;;;;;;;7.35;2.10;;;6.00;99.90;;;;;;5111104;28;20480;-43
2023/03/07 01:13:01;;;;;;;2.92;1.70;;;6.00;99.90;;;;;;5103923;27;20076;-54
2023/03/07 01:15:27;;;;;;;5.40;1.98;;;6.00;99.90;;;;;;5110925;28;20047;-51
2023/03/07 01:17:53;;;;;;;5.97;1.90;;;6.00;99.90;;;;;;5118466;27;20031;-54
2023/03/07 01:20:18;;;;;;;6.03;1.75;;;5.90;99.90;;;;;;5113613;27;20030;-42
2023/03/07 01:22:44;;;;;;;5.57;1.65;;;5.80;99.90;;;;;;5111102;28;20050;-51
2023/03/07 01:25:12;;;;;;;5.50;1.77;;;5.90;99.90;;;;;;5110557;28;20019;-42
2023/03/07 01:27:38;;;;;;;5.10;1.30;;;5.90;99.90;;;;;;5116031;27;20500;-42
2023/03/07 01:30:06;;;;;;;8.15;1.60;;;6.00;99.90;;;;;;5117565;27;20487;-48
2023/03/07 01:32:32;;;;;;;3.33;1.50;;;5.90;99.90;;;;;;5112057;27;20047;-43
2023/03/07 01:34:57;;;;;;;4.32;1.50;;;5.90;99.90;;;;;;5118552;27;20092;-45
2023/03/07 01:37:23;;;;;;;5.03;1.60;;;5.80;99.90;;;;;;5115797;27;20015;-49
2023/03/07 01:39:52;;;;;;;4.25;1.60;;;5.80;99.90;;;;;;5121466;27;20015;-45
2023/03/07 01:42:20;;;;;;;4.35;1.92;;;5.80;99.90;;;;;;5110640;28;20115;-47
2023/03/07 01:45:24;;;;;;;5.75;2.08;;;5.80;99.90;;;;;;5098540;28;20111;-47
2023/03/07 01:47:50;;;;;;;4.55;2.17;;;5.80;99.90;;;;;;5111424;27;20153;-42
2023/03/07 01:50:17;;;;;;;5.38;2.17;;;5.80;99.90;;;;;;5110657;28;20115;-42
2023/03/07 01:52:51;;;;;;;5.32;2.45;;;5.80;99.90;;;;;;5112302;28;20441;-47
2023/03/07 01:55:22;;;;;;;8.13;2.80;;;5.80;99.90;;;;;;5110789;28;20031;-47
2023/03/07 01:57:50;;;;;;;6.78;3.42;;;5.80;99.90;;;;;;5113027;28;20628;-45
2023/03/07 02:00:28;;;;;;;6.32;2.53;;;5.80;99.90;;;;;;5110847;28;20109;-43
2023/03/07 02:03:09;;;;;;;8.30;2.22;;;5.80;99.90;;;;;;5112318;28;20404;-42
2023/03/07 02:05:41;;;;;;;3.95;2.22;;;5.80;99.90;;;;;;5110511;28;20531;-42
2023/03/07 02:08:10;;;;;;;6.68;2.33;;;5.80;99.90;;;;;;5114548;28;20483;-44
2023/03/07 02:10:37;;;;;;;4.60;2.28;;;5.70;99.90;;;;;;5109195;28;20398;-44
2023/03/07 02:13:03;;;;;;;3.97;2.20;;;5.80;99.90;;;;;;5114179;28;20435;-42
2023/03/07 02:15:29;;;;;;;5.60;2.13;;;5.80;99.90;;;;;;5111034;27;20059;-51
2023/03/07 02:17:57;;;;;;;6.72;2.40;;;5.80;99.90;;;;;;5118216;28;20483;-44
2023/03/07 02:20:33;;;;;;;6.38;2.25;;;5.70;99.90;;;;;;5112479;27;20526;-42
2023/03/07 02:22:59;;;;;;;6.78;2.30;;;5.70;99.90;;;;;;5113743;28;20026;-43
2023/03/07 02:26:03;;;;;;;6.88;2.30;;;5.70;99.90;;;;;;5113010;27;20024;-45
2023/03/07 02:28:29;;;;;;;5.25;2.35;;;5.80;99.90;;;;;;5104708;28;20042;-45
2023/03/07 02:31:00;;;;;;;6.82;2.30;;;5.80;99.90;;;;;;5110479;28;20012;-41
2023/03/07 02:33:27;;;;;;;6.43;2.42;;;5.80;99.90;;;;;;5110515;28;20121;-43
2023/03/07 02:36:00;;;;;;;7.75;2.72;;;5.80;99.90;;;;;;5110363;28;20016;-47
2023/03/07 02:38:26;;;;;;;6.60;2.40;;;5.80;99.90;;;;;;5109972;28;20076;-42
2023/03/07 02:40:54;;;;;;;6.18;2.45;;;5.80;99.90;;;;;;5110098;28;20020;-42
2023/03/07 02:43:20;;;;;;;8.60;2.45;;;5.80;99.90;;;;;;5110177;28;20028;-45
2023/03/07 02:45:46;;;;;;;8.95;2.28;;;5.80;99.90;;;;;;5110256;28;20043;-42
2023/03/07 02:48:11;;;;;;;4.55;2.13;;;5.80;99.90;;;;;;5110391;28;20019;-50
2023/03/07 02:50:37;;;;;;;8.90;2.70;;;5.80;99.90;;;;;;5110097;28;20488;-49
2023/03/07 02:53:03;;;;;;;8.82;2.30;;;5.80;99.90;;;;;;5110193;28;20050;-44
2023/03/07 02:55:28;;;;;;;5.00;2.30;;;5.90;99.90;;;;;;5110943;28;20034;-42
2023/03/07 02:57:54;;;;;;;7.05;2.40;;;5.90;99.90;;;;;;5113473;28;20027;-47
2023/03/07 03:00:20;;;;;;;7.30;2.35;;;5.80;99.90;;;;;;5114012;28;20176;-43
2023/03/07 03:02:45;;;;;;;6.95;2.22;;;5.80;99.90;;;;;;5112830;28;20027;-45
2023/03/07 03:05:11;;;;;;;5.35;2.10;;;5.90;99.90;;;;;;5113558;28;20087;-44
2023/03/07 03:07:37;;;;;;;8.05;2.10;;;5.90;99.90;;;;;;5113649;28;20061;-49
2023/03/07 03:10:04;;;;;;;6.43;2.10;;;5.90;99.90;;;;;;5113827;28;20376;-45
2023/03/07 03:12:29;;;;;;;4.65;2.30;;;5.90;99.90;;;;;;5104216;27;20512;-46
2023/03/07 03:14:55;;;;;;;9.68;2.30;;;5.90;99.90;;;;;;5107718;28;20022;-45
2023/03/07 03:17:21;;;;;;;4.55;2.13;;;5.90;99.90;;;;;;5113086;28;20098;-49
2023/03/07 03:19:46;;;;;;;4.15;2.05;;;5.90;99.90;;;;;;5113487;28;20034;-47
2023/03/07 03:22:12;;;;;;;4.90;1.98;;;5.90;99.90;;;;;;5112915;27;20437;-42
2023/03/07 03:24:39;;;;;;;6.50;2.30;;;5.90;99.90;;;;;;5117004;27;20027;-48
2023/03/07 03:27:05;;;;;;;7.88;2.70;;;5.90;99.90;;;;;;5113035;28;20517;-46
2023/03/07 03:29:31;;;;;;;3.80;2.05;;;5.90;99.90;;;;;;5113268;28;20033;-48
2023/03/07 03:31:56;;;;;;;7.22;2.22;;;6.00;99.90;;;;;;5112970;28;20024;-43
2023/03/07 03:34:23;;;;;;;6.78;2.30;;;5.90;99.90;;;;;;5113044;28;20043;-45
2023/03/07 03:36:48;;;;;;;5.00;2.30;;;5.90;99.90;;;;;;5096619;28;20031;-42
2023/03/07 03:39:14;;;;;;;4.90;1.92;;;5.90;99.90;;;;;;5119760;27;20024;-43
2023/03/07 03:41:40;;;;;;;7.95;2.20;;;5.90;99.90;;;;;;5112989;27;20039;-42
2023/03/07 03:44:05;;;;;;;5.22;2.20;;;5.90;99.90;;;;;;5116983;27;20012;-43
2023/03/07 03:46:31;;;;;;;4.28;2.25;;;6.00;99.90;;;;;;5104150;27;20039;-45
2023/03/07 03:48:56;;;;;;;11.02;2.80;;;5.90;99.90;;;;;;5110701;27;20016;-42
2023/03/07 03:51:23;;;;;;;2.97;1.90;;;5.90;99.90;;;;;;5112688;27;20037;-46
2023/03/07 03:53:49;;;;;;;8.18;1.90;;;6.00;99.90;;;;;;5112944;28;20016;-47
2023/03/07 03:56:21;;;;;;;7.32;2.50;;;6.00;99.90;;;;;;5112586;27;20491;-45
2023/03/07 03:58:50;;;;;;;8.30;3.05;;;5.90;99.90;;;;;;5112683;28;20065;-41
2023/03/07 04:01:16;;;;;;;5.83;2.47;;;5.90;99.90;;;;;;5114316;27;20412;-42
2023/03/07 04:03:45;;;;;;;5.18;2.58;;;5.90;99.90;;;;;;5114524;27;20316;-41
2023/03/07 04:06:13;;;;;;;6.93;2.53;;;5.90;99.90;;;;;;5116371;27;20379;-47
2023/03/07 04:08:39;;;;;;;7.82;2.28;;;5.90;99.90;;;;;;5113997;27;20067;-42
2023/03/07 04:11:05;;;;;;;5.75;2.22;;;5.90;99.90;;;;;;5116547;27;20110;-53
2023/03/07 04:13:32;;;;;;;7.85;2.10;;;5.90;99.90;;;;;;5101954;27;20432;-49
2023/03/07 04:15:58;;;;;;;6.55;2.53;;;5.90;99.90;;;;;;5112277;28;20098;-52
2023/03/07 04:18:24;;;;;;;5.25;2.20;;;5.90;99.90;;;;;;5112105;28;20098;-49
2023/03/07 04:20:50;;;;;;;6.55;1.90;;;5.90;99.90;;;;;;5112327;28;20144;-46
2023/03/07 04:23:20;;;;;;;8.25;2.30;;;5.90;99.90;;;;;;5112037;28;20038;-55
2023/03/07 04:25:50;;;;;;;6.60;2.60;;;5.90;99.90;;;;;;5112203;28;20030;-42
2023/03/07 04:28:16;;;;;;;;;;;5.90;99.90;;;;;;5097961;28;20472;-42
2023/03/07 04:30:42;;;;;;;4.45;1.80;;;5.90;99.90;;;;;;5105456;28;20359;-47
2023/03/07 04:33:07;;;;;;;7.82;2.35;;;5.90;99.90;;;;;;5097090;28;20024;-42
2023/03/07 04:35:33;;;;;;;4.53;2.15;;;5.90;99.90;;;;;;5110814;28;20047;-49
2023/03/07 04:37:58;;;;;;;6.57;2.17;;;5.80;99.90;;;;;;5098483;28;20487;-44
2023/03/07 04:40:24;;;;;;;4.43;1.90;;;5.80;99.90;;;;;;5112022;28;20023;-51
2023/03/07 04:42:50;;;;;;;8.02;2.40;;;5.80;99.90;;;;;;5110388;28;20023;-44
2023/03/07 04:45:15;;;;;;;6.53;2.50;;;5.80;99.90;;;;;;5112986;27;20072;-43
2023/03/07 04:47:41;;;;;;;7.57;2.17;;;5.80;99.90;;;;;;5111614;28;20404;-42
2023/03/07 04:50:07;;;;;;;9.20;2.60;;;5.80;99.90;;;;;;5111704;28;20022;-43
2023/03/07 04:52:33;;;;;;;7.15;2.10;;;5.80;99.90;;;;;;5111516;28;20038;-46
2023/03/07 04:54:59;;;;;;;7.63;2.53;;;5.80;99.90;;;;;;5111905;28;20016;-46
2023/03/07 04:57:24;;;;;;;6.05;2.30;;;5.80;99.90;;;;;;5111564;28;20051;-48
2023/03/07 04:59:50;;;;;;;7.95;2.50;;;5.80;99.90;;;;;;5111302;28;20019;-44
2023/03/07 05:02:15;;;;;;;9.68;2.65;;;5.80;99.90;;;;;;5100991;28;20055;-42
2023/03/07 05:04:41;;;;;;;5.55;2.08;;;5.70;99.90;;;;;;5106629;28;20391;-42
2023/03/07 05:07:06;;;;;;;5.30;2.22;;;5.70;99.90;;;;;;5111432;28;20039;-42
2023/03/07 05:09:32;;;;;;;8.18;2.25;;;5.80;99.90;;;;;;5110097;28;20088;-49
2023/03/07 05:11:58;;;;;;;4.32;1.92;;;5.70;99.90;;;;;;5111171;28;20328;-48
2023/03/07 05:14:23;;;;;;;5.20;2.38;;;5.70;99.90;;;;;;5123348;27;20023;-47
2023/03/07 05:16:49;;;;;;;9.43;2.50;;;5.70;99.90;;;;;;5113295;27;20080;-45
2023/03/07 05:19:14;;;;;;;5.88;2.15;;;5.70;99.90;;;;;;5110325;28;20015;-48
2023/03/07 05:21:42;;;;;;;5.57;2.47;;;5.70;99.90;;;;;;5110949;28;20059;-52
2023/03/07 05:24:09;;;;;;;7.05;2.17;;;5.70;99.90;;;;;;5111181;28;20051;-41
2023/03/07 05:26:34;;;;;;;4.57;2.00;;;5.70;99.90;;;;;;5110632;28;20114;-40
2023/03/07 05:29:00;;;;;;;7.35;2.25;;;5.80;99.90;;;;;;5110820;28;20870;-43
2023/03/07 05:31:25;;;;;;;7.00;2.10;;;5.70;99.90;;;;;;5110895;28;20030;-48
2023/03/07 05:33:51;;;;;;;5.22;2.05;;;5.70;99.90;;;;;;5110441;28;20035;-47
2023/03/07 05:36:17;;;;;;;6.05;2.00;;;5.70;99.90;;;;;;5101408;28;20032;-46
2023/03/07 05:38:43;;;;;;;6.20;2.30;;;5.60;99.90;;;;;;5105693;28;20394;-45
2023/03/07 05:41:08;;;;;;;3.85;1.77;;;5.60;99.90;;;;;;5110842;28;20019;-42
2023/03/07 05:43:34;;;;;;;5.07;1.75;;;5.60;99.90;;;;;;5117968;27;20450;-40
2023/03/07 05:46:00;;;;;;;5.63;1.92;;;5.60;99.90;;;;;;5111486;27;20040;-40
2023/03/07 05:48:26;;;;;;;3.45;1.80;;;5.60;99.90;;;;;;5110270;28;20066;-44
2023/03/07 05:50:51;;;;;;;3.65;1.80;;;5.50;99.90;;;;;;5110443;28;20023;-50
2023/03/07 05:53:17;;;;;;;5.25;1.80;;;5.50;99.90;;;;;;5110740;28;20012;-51
2023/03/07 05:55:43;;;;;;;3.28;1.55;;;5.50;99.90;;;;;;5110522;28;20035;-48
2023/03/07 05:58:09;;;;;;;4.03;2.08;;;5.50;99.90;;;;;;5110682;28;20023;-40
2023/03/07 06:00:35;;;;;;;5.28;1.90;;;5.50;99.90;;;;;;5110516;28;20015;-44
2023/03/07 06:03:02;;;;;;;3.58;1.60;;;5.50;99.90;;;;;;5110350;28;20098;-44
2023/03/07 06:05:28;;;;;;;4.35;1.98;;;5.50;99.90;;;;;;5110926;28;20028;-40
2023/03/07 06:07:53;;;;;;;5.28;1.90;;;5.50;99.90;;;;;;5110889;28;20027;-44
2023/03/07 06:10:19;;;;;;;3.22;1.75;;;5.50;99.90;;;;;;5109672;28;20118;-48
2023/03/07 06:12:54;;;;;;;3.47;2.00;;;5.40;99.90;;;;;;5117554;28;20033;-45
2023/03/07 06:15:20;;;;;;;6.95;1.90;;;5.40;99.90;;;;;;5123454;27;20381;-43
2023/03/07 06:17:46;;;;;;;3.03;1.77;;;5.40;99.90;;;;;;5123361;28;20098;-52
2023/03/07 06:20:12;;;;;;;6.13;1.90;;;5.40;99.90;;;;;;5117181;28;20490;-43
2023/03/07 06:22:38;;;;;;;4.20;2.15;;;5.40;99.90;;;;;;5122427;28;20496;-44
2023/03/07 06:25:05;;;;;;;6.78;2.22;;;5.40;99.90;;;;;;5118519;28;20023;-48
2023/03/07 06:27:37;;;;;;;3.35;2.00;;;5.30;99.90;;;;;;5120271;28;20031;-44
2023/03/07 06:30:05;;;;;;;4.68;2.30;;;5.40;99.90;;;;;;5119577;27;20357;-49
2023/03/07 06:32:31;;;;;;;3.75;2.30;;;5.30;99.90;;;;;;5123589;27;20470;-40
2023/03/07 06:34:57;;;;;;;3.80;2.40;;;5.10;99.90;;;;;;5125124;27;20122;-43
2023/03/07 06:37:23;;;;;;;3.30;2.30;;;5.00;99.90;;;;;;5099874;28;20031;-40
2023/03/07 06:39:49;;;;;;;3.90;2.60;;;4.90;99.90;;;;;;5112383;28;20415;-44
2023/03/07 06:42:15;;;;;;;3.38;2.08;;;4.80;99.90;;;;;;5113705;28;20385;-45
2023/03/07 06:44:41;;;;;;;3.97;2.50;;;4.80;99.90;;;;;;5122797;27;20077;-40
2023/03/07 06:47:06;;;;;;;4.50;2.90;;;4.60;99.90;;;;;;5120117;27;20035;-43
2023/03/07 06:49:32;;;;;;;3.67;2.38;;;4.60;99.90;;;;;;5114378;28;20016;-50
2023/03/07 06:51:58;;;;;;;5.00;3.30;;;4.50;99.90;;;;;;5112969;28;20030;-40
2023/03/07 06:54:23;;;;;;;4.45;3.10;;;4.40;99.90;;;;;;5112997;28;20045;-45
2023/03/07 06:56:50;;;;;;;4.97;3.30;;;4.30;99.90;;;;;;5112806;28;20077;-43
2023/03/07 06:59:16;;;;;;;5.32;2.95;;;4.30;99.90;;;;;;5114073;28;20019;-50
2023/03/07 07:01:42;;;;;;;4.80;3.08;;;4.30;99.90;;;;;;5114066;27;20028;-41
2023/03/07 07:04:09;;;;;;;6.18;3.80;;;4.20;99.90;;;;;;5113666;28;20501;-41
2023/03/07 07:06:35;;;;;;;5.30;3.50;;;4.20;99.90;;;;;;5113579;28;20032;-43
2023/03/07 07:09:00;;;;;;;6.20;3.60;;;4.20;99.90;;;;;;5113890;28;20026;-55
2023/03/07 07:11:26;;;;;;;6.00;3.58;;;4.20;99.90;;;;;;5113717;28;20510;-47
2023/03/07 07:13:52;;;;;;;5.43;3.50;;;4.10;99.90;;;;;;5113753;28;20026;-47
2023/03/07 07:16:18;;;;;;;6.32;3.88;;;4.20;99.90;;;;;;5113854;28;20042;-42
2023/03/07 07:18:44;;;;;;;5.97;3.78;;;4.20;99.90;;;;;;5112400;28;20020;-41
2023/03/07 07:21:10;;;;;;;7.25;4.13;;;4.20;99.90;;;;;;5113797;28;20055;-50
2023/03/07 07:23:35;;;;;;;7.50;4.25;;;4.20;99.90;;;;;;5113612;28;20019;-46
2023/03/07 07:26:01;;;;;;;5.82;4.05;;;4.30;99.90;;;;;;5113264;28;20119;-41
2023/03/07 07:28:27;;;;;;;7.45;4.80;;;4.30;99.90;;;;;;5113477;28;20059;-46
2023/03/07 07:30:53;;;;;;;6.45;4.25;;;4.30;99.90;;;;;;5113627;28;20069;-43
2023/03/07 07:33:18;;;;;;;6.75;4.07;;;4.30;99.90;;;;;;5111554;28;20385;-41
2023/03/07 07:35:45;;;;;;;7.22;4.20;;;4.30;99.90;;;;;;5114429;27;20032;-42
2023/03/07 07:38:11;;;;;;;6.28;4.50;;;4.40;99.90;;;;;;5111015;27;20143;-41
2023/03/07 07:40:37;;;;;;;6.13;4.00;;;4.40;99.90;;;;;;5120000;27;20072;-48
2023/03/07 07:43:03;;;;;;;6.55;4.35;;;4.40;99.90;;;;;;5118550;27;20028;-42
2023/03/07 07:45:29;;;;;;;7.15;4.45;;;4.40;99.90;;;;;;5115149;27;20043;-43
2023/03/07 07:47:54;;;;;;;6.55;4.43;;;4.60;99.90;;;;;;5117022;27;20661;-41
2023/03/07 07:50:21;;;;;;;6.97;4.60;;;4.40;99.90;;;;;;5127850;27;20023;-45
2023/03/07 07:52:48;;;;;;;6.78;4.00;;;4.50;99.90;;;;;;5116883;27;20024;-45
2023/03/07 07:55:14;;;;;;;7.90;5.10;;;4.60;99.90;;;;;;5116744;27;20046;-45
2023/03/07 07:57:41;;;;;;;6.55;4.35;;;4.70;99.90;;;;;;5114344;27;20589;-51
2023/03/07 08:00:08;;;;;;;7.18;4.90;;;4.90;99.90;;;;;;5114673;27;20092;-44
2023/03/07 08:02:35;;;;;;;6.65;4.07;;;4.90;99.90;;;;;;5116534;27;20015;-42
2023/03/07 08:05:00;;;;;;;6.82;4.25;;;5.00;99.90;;;;;;5114646;27;20027;-47
2023/03/07 08:07:26;;;;;;;6.10;4.05;;;5.10;99.90;;;;;;5115530;27;20035;-51
2023/03/07 08:09:52;;;;;;;6.25;4.05;;;5.20;99.90;;;;;;5114573;27;20034;-44
2023/03/07 08:12:17;;;;;;;6.72;4.50;;;5.30;99.90;;;;;;5114360;27;20031;-49
2023/03/07 08:14:43;;;;;;;5.90;3.92;;;5.30;99.90;;;;;;5126669;27;20027;-41
2023/03/07 08:17:09;;;;;;;6.35;4.10;;;5.40;99.90;;;;;;5114266;27;20028;-42
2023/03/07 08:19:34;;;;;;;6.10;4.20;;;5.30;99.90;;;;;;5115817;27;20030;-42
2023/03/07 08:22:01;;;;;;;6.35;4.10;;;5.30;99.90;;;;;;5114067;27;20090;-45
2023/03/07 08:24:26;;;;;;;5.72;3.53;;;5.30;99.90;;;;;;5115348;27;20027;-41
2023/03/07 08:26:52;;;;;;;6.57;4.30;;;5.30;99.90;;;;;;5114174;27;20506;-46
2023/03/07 08:29:18;;;;;;;6.25;4.10;;;5.30;99.90;;;;;;5109484;27;20023;-45
2023/03/07 08:31:44;;;;;;;6.63;4.38;;;5.30;99.90;;;;;;5118766;27;20486;-45
2023/03/07 08:34:11;;;;;;;6.03;3.70;;;5.30;99.90;;;;;;5114878;27;20392;-46
2023/03/07 08:36:36;;;;;;;8.60;4.60;;;5.30;99.90;;;;;;5106773;27;20499;-50
2023/03/07 08:39:02;;;;;;;10.82;4.78;;;5.40;99.90;;;;;;5116424;27;20024;-48
2023/03/07 08:41:28;;;;;;;8.02;5.55;;;5.50;99.90;;;;;;5116061;27;20035;-46
2023/03/07 08:43:54;;;;;;;8.38;6.00;;;5.50;99.90;;;;;;5114827;27;20019;-40
2023/03/07 08:46:19;;;;;;;8.98;6.03;;;5.50;99.90;;;;;;5114706;27;20027;-45
2023/03/07 08:48:45;;;;;;;6.82;4.93;;;5.70;99.90;;;;;;5130721;27;20030;-52
2023/03/07 08:51:14;;;;;;;9.48;6.35;;;5.70;99.90;;;;;;5117447;27;20484;-43
2023/03/07 08:53:41;;;;;;;7.30;4.50;;;5.90;99.90;;;;;;5118049;27;20043;-52
2023/03/07 08:56:09;;;;;;;7.05;4.10;;;5.90;99.90;;;;;;5119602;27;20110;-45
2023/03/07 08:58:35;;;;;;;6.50;3.60;;;6.00;99.90;;;;;;5124003;27;20050;-45
2023/03/07 09:01:02;;;;;;;4.47;2.95;;;6.00;99.90;;;;;;5123210;27;20023;-46
2023/03/07 09:03:28;;;;;;;5.90;3.00;;;6.00;99.90;;;;;;5121587;27;20023;-51
2023/03/07 09:05:53;;;;;;;4.38;3.10;;;6.20;99.90;;;;;;5125076;27;20027;-49
2023/03/07 09:08:19;;;;;;;4.75;2.97;;;6.30;99.90;;;;;;5114258;27;20365;-42
2023/03/07 09:10:45;;;;;;;5.72;2.97;;;6.40;99.90;;;;;;5111088;28;20070;-44
2023/03/07 09:13:11;;;;;;;3.78;2.75;;;6.20;99.90;;;;;;5111475;28;20394;-43
2023/03/07 09:15:40;;;;;;;5.78;2.90;;;6.30;99.90;;;;;;5111432;28;20082;-48
2023/03/07 09:18:07;;;;;;;5.65;3.20;;;6.20;99.90;;;;;;5116633;27;20039;-51
2023/03/07 09:20:32;;;;;;;4.68;2.53;;;6.20;99.90;;;;;;5111410;28;20510;-42
2023/03/07 09:22:58;;;;;;;4.22;2.30;;;6.20;99.90;;;;;;5111002;27;20027;-43
2023/03/07 09:25:24;;;;;;;4.90;2.60;;;6.00;99.90;;;;;;5097898;27;20391;-48
2023/03/07 09:27:52;;;;;;;3.85;2.53;;;6.00;99.90;;;;;;5099917;27;20039;-41
2023/03/07 09:30:18;;;;;;;5.25;2.58;;;6.10;99.90;;;;;;5104125;28;20016;-44
2023/03/07 09:32:44;;;;;;;5.18;2.80;;;6.20;99.90;;;;;;5118894;27;20035;-45
2023/03/07 09:35:10;;;;;;;8.85;4.03;;;6.50;99.90;;;;;;5109695;28;20039;-43
2023/03/07 09:37:35;;;;;;;5.03;2.50;;;6.60;99.90;;;;;;5108602;28;20024;-47
2023/03/07 09:40:06;;;;;;;5.68;3.60;;;6.70;99.90;;;;;;5110934;27;20034;-43
2023/03/07 09:43:04;;;;;;;7.68;2.55;;;6.90;99.90;;;;;;5111075;28;20027;-45
2023/03/07 09:45:58;;;;;;;5.53;3.57;;;6.90;99.90;;;;;;5112895;27;20078;-51
2023/03/07 09:48:52;;;;;;;5.97;3.00;;;7.10;99.90;;;;;;5101369;28;20027;-47
2023/03/07 09:51:36;;;;;;;3.70;2.17;;;7.20;99.90;;;;;;5085291;28;20054;-46
2023/03/07 09:54:09;;;;;;;2.95;1.42;;;7.50;99.90;;;;;;5109567;28;20019;-47
2023/03/07 09:56:48;;;;;;;2.50;1.50;;;7.60;99.90;;;;;;5113574;27;20032;-50
2023/03/07 09:59:38;;;;;;;3.47;1.60;;;7.70;99.90;;;;;;5110525;28;20024;-48
2023/03/07 10:02:10;;;;;;;;;;;7.70;99.90;;;;;;5113107;28;20024;-48
2023/03/07 10:05:05;;;;;;;2.85;1.60;;;7.80;99.90;;;;;;5112683;27;19908;-46
2023/03/07 10:07:32;;;;;;;4.00;1.88;;;7.90;99.90;;;;;;5094960;28;20062;-44
2023/03/07 10:10:09;;;;;;;5.22;2.60;;;7.80;99.90;;;;;;5097340;27;20476;-46
2023/03/07 10:12:47;;;;;;;3.72;2.30;;;7.80;99.90;;;;;;5093770;28;20024;-43
2023/03/07 10:15:34;;;;;;;6.65;3.00;;;7.60;99.90;;;;;;5093036;28;20487;-42
2023/03/07 10:18:05;;;;;;;7.07;2.90;;;7.50;99.90;;;;;;5093590;28;20460;-56
2023/03/07 10:20:58;;;;;;;4.88;3.03;;;7.40;99.90;;;;;;5092855;28;20031;-44
2023/03/07 10:23:42;;;;;;;7.55;3.22;;;7.30;99.90;;;;;;5095782;28;20046;-50
2023/03/07 10:26:39;;;;;;;7.80;3.22;;;7.30;99.90;;;;;;5095566;28;20131;-42
2023/03/07 10:29:16;;;;;;;4.93;2.70;;;7.10;99.90;;;;;;5080026;28;20947;-43
2023/03/07 10:31:47;;;;;;;4.30;2.80;;;7.00;99.90;;;;;;5107155;27;20023;-42
2023/03/07 10:34:27;;;;;;;5.63;3.10;;;7.10;99.90;;;;;;5122656;27;20079;-42
2023/03/07 10:37:00;;;;;;;4.78;2.90;;;7.10;99.90;;;;;;5110765;27;20019;-45
2023/03/07 10:39:35;;;;;;;4.93;2.97;;;7.10;99.90;;;;;;5113889;27;20471;-45
2023/03/07 10:42:01;;;;;;;5.50;3.50;;;7.00;99.90;;;;;;5114070;27;20496;-43
2023/03/07 10:44:31;;;;;;;5.22;2.78;;;6.90;99.90;;;;;;5114028;28;20051;-46
2023/03/07 10:46:58;;;;;;;4.57;2.60;;;6.80;99.90;;;;;;5107105;27;20032;-48
2023/03/07 10:49:30;;;;;;;4.78;2.72;;;6.70;99.90;;;;;;5094770;28;20025;-46
2023/03/07 10:52:02;;;;;;;3.75;2.30;;;6.90;99.90;;;;;;5096141;28;20059;-43
2023/03/07 10:54:37;;;;;;;5.55;2.38;;;6.80;99.90;;;;;;5112924;28;20163;-50
2023/03/07 10:57:05;;;;;;;5.35;2.28;;;6.80;99.90;;;;;;5123755;27;20035;-48
2023/03/07 10:59:31;;;;;;;4.75;2.67;;;6.90;99.90;;;;;;5126142;27;20027;-46
2023/03/07 11:01:59;;;;;;;8.60;3.95;;;6.90;99.90;;;;;;5114223;27;20032;-49
2023/03/07 11:04:28;;;;;;;5.72;2.97;;;7.10;99.90;;;;;;5113505;27;20494;-53
2023/03/07 11:06:55;;;;;;;4.18;2.45;;;7.10;99.90;;;;;;5089131;27;20040;-49
2023/03/07 11:09:28;;;;;;;6.80;3.75;;;7.00;99.90;;;;;;5126623;27;20035;-46
2023/03/07 11:12:11;;;;;;;3.15;1.52;;;6.90;99.90;;;;;;5107677;27;20387;-49
2023/03/07 11:14:47;;;;;;;8.32;4.40;;;7.00;99.90;;;;;;5113918;27;20106;-52
2023/03/07 11:17:39;;;;;;;4.47;2.00;;;7.10;99.90;;;;;;5114946;27;20055;-50
2023/03/07 11:20:17;;;;;;;6.18;2.90;;;7.20;99.90;;;;;;5116147;27;20058;-49
2023/03/07 11:22:43;;;;;;;3.53;1.30;;;7.40;99.90;;;;;;5113122;27;20487;-51
2023/03/07 11:25:25;;;;;;;7.72;2.35;;;7.40;99.90;;;;;;5113614;28;20019;-54
2023/03/07 11:27:53;;;;;;;2.47;1.17;;;7.70;99.90;;;;;;5116081;27;20350;-46
2023/03/07 11:30:48;;;;;;;4.38;1.20;;;7.80;99.90;;;;;;5112822;27;20388;-54
2023/03/07 11:33:32;;;;;;;3.53;1.05;;;8.20;99.90;;;;;;5115168;27;20034;-49
2023/03/07 11:36:11;;;;;;;2.42;0.90;;;8.80;99.90;;;;;;5110126;27;20038;-48
2023/03/07 11:39:13;;;;;;;3.45;1.02;;;9.00;99.90;;;;;;5115197;27;20031;-54
2023/03/07 11:41:45;;;;;;;2.45;1.00;;;9.00;99.90;;;;;;5109545;28;20054;-49
2023/03/07 11:44:22;;;;;;;1.15;0.85;;;9.10;99.90;;;;;;5111336;28;20028;-46
2023/03/07 11:47:12;;;;;;;1.70;0.85;;;8.70;99.90;;;;;;5112950;27;20122;-47
2023/03/07 11:49:57;;;;;;;4.22;1.10;;;8.70;99.90;;;;;;5109754;27;20020;-52
2023/03/07 11:52:40;;;;;;;2.45;0.90;;;8.50;99.90;;;;;;5112599;27;20030;-48
2023/03/07 11:55:23;;;;;;;2.33;0.93;;;8.60;99.90;;;;;;5114018;27;20099;-42
2023/03/07 11:58:01;;;;;;;2.83;0.95;;;8.70;99.90;;;;;;5105286;27;20114;-42
2023/03/07 12:00:41;;;;;;;1.63;0.80;;;8.80;99.90;;;;;;5116412;27;20034;-42
2023/03/07 12:03:40;;;;;;;3.38;1.00;;;8.80;99.90;;;;;;5112574;27;20026;-43
2023/03/07 12:06:30;;;;;;;3.05;0.80;;;8.70;99.90;;;;;;5108789;28;20122;-45
2023/03/07 12:09:04;;;;;;;2.63;1.23;;;8.80;99.90;;;;;;5113881;27;20081;-47
2023/03/07 12:11:33;;;;;;;1.77;1.40;;;9.00;99.90;;;;;;5117127;27;20100;-43
2023/03/07 12:14:10;;;;;;;3.50;1.05;;;8.70;99.90;;;;;;5121925;27;20030;-39
2023/03/07 12:16:57;;;;;;;4.63;1.20;;;8.80;99.90;;;;;;5128810;27;20023;-40
2023/03/07 12:19:52;;;;;;;4.43;1.38;;;8.80;99.90;;;;;;5111088;28;20036;-44
2023/03/07 12:22:27;;;;;;;1.67;1.13;;;8.70;99.90;;;;;;5112496;28;20070;-42
2023/03/07 12:25:02;;;;;;;3.10;1.45;;;8.60;99.90;;;;;;5112355;28;20019;-42
2023/03/07 12:27:33;;;;;;;4.35;1.20;;;8.40;99.90;;;;;;5112152;27;20031;-43
2023/03/07 12:30:05;;;;;;;2.10;1.00;;;8.20;99.90;;;;;;5111818;28;20027;-43
2023/03/07 12:32:33;;;;;;;2.67;1.55;;;8.10;99.90;;;;;;5113311;27;20040;-48
2023/03/07 12:35:16;;;;;;;3.05;1.30;;;8.20;99.90;;;;;;5111922;28;20039;-46
2023/03/07 12:37:48;;;;;;;4.93;1.20;;;7.90;99.90;;;;;;5108010;28;20467;-44
2023/03/07 12:40:21;;;;;;;3.15;1.38;;;7.80;99.90;;;;;;5112399;28;20027;-49
2023/03/07 12:43:15;;;;;;;4.85;1.80;;;7.90;99.90;;;;;;5098421;28;20024;-47
2023/03/07 12:45:51;;;;;;;4.72;1.60;;;7.80;99.90;;;;;;5111774;28;20566;-44
2023/03/07 12:48:36;;;;;;;4.20;2.00;;;7.80;99.90;;;;;;5111665;27;20023;-48
2023/03/07 12:51:11;;;;;;;4.07;2.10;;;7.80;99.90;;;;;;5077282;27;20035;-47
2023/03/07 12:53:48;;;;;;;4.13;1.70;;;7.60;99.90;;;;;;5120200;27;20058;-44
2023/03/07 12:56:31;;;;;;;7.07;2.40;;;7.60;99.90;;;;;;5125398;27;20088;-45
2023/03/07 12:59:09;;;;;;;4.00;1.80;;;7.40;99.90;;;;;;5127526;27;20487;-47
2023/03/07 13:01:59;;;;;;;3.75;2.45;;;7.70;99.90;;;;;;5125939;27;20022;-48
2023/03/07 13:04:37;;;;;;;3.53;2.25;;;8.00;99.90;;;;;;5107804;27;20040;-45
2023/03/07 13:07:08;;;;;;;3.92;2.10;;;8.10;99.90;;;;;;5108904;27;20126;-44
2023/03/07 13:09:38;;;;;;;3.67;1.98;;;8.20;99.90;;;;;;5125493;27;20020;-52
2023/03/07 13:12:17;;;;;;;5.68;2.30;;;8.20;99.90;;;;;;5128765;27;20031;-45